createdAt,value
2022-12-19T00:01:36.252Z,101172.25
2022-12-19T00:04:08.132Z,101179.10
2022-12-19T00:06:43.658Z,101184.92
2022-12-19T00:09:12.165Z,101188.43
2022-12-19T00:11:39.433Z,101181.80
2022-12-19T00:14:08.418Z,101181.52
2022-12-19T00:16:35.398Z,101180.64
2022-12-19T00:19:02.492Z,101188.31
2022-12-19T00:21:34.810Z,101195.11
2022-12-19T00:24:08.688Z,101203.24
2022-12-19T00:26:48.827Z,101205.48
2022-12-19T00:29:16.318Z,101206.20
2022-12-19T00:31:44.193Z,101214.25
2022-12-19T00:34:11.084Z,101215.55
2022-12-19T00:36:39.676Z,101216.09
2022-12-19T00:39:07.823Z,101215.03
2022-12-19T00:41:36.324Z,101212.94
2022-12-19T00:44:07.071Z,101217.58
2022-12-19T00:46:35.054Z,101223.92
2022-12-19T00:49:03.424Z,101227.23
2022-12-19T00:51:32.839Z,101226.11
2022-12-19T00:54:00.574Z,101223.02
2022-12-19T00:56:34.467Z,101220.95
2022-12-19T00:59:06.650Z,101217.34
2022-12-19T01:01:36.652Z,101216.95
2022-12-19T01:04:27.585Z,101225.63
2022-12-19T01:06:52.463Z,101227.59
2022-12-19T01:09:22.152Z,101223.39
2022-12-19T01:12:08.058Z,101227.85
2022-12-19T01:14:34.864Z,101225.58
2022-12-19T01:17:01.950Z,101229.98
2022-12-19T01:19:29.357Z,101228.39
2022-12-19T01:21:56.276Z,101231.62
2022-12-19T01:24:24.083Z,101232.98
2022-12-19T01:26:50.981Z,101241.54
2022-12-19T01:29:19.945Z,101244.30
2022-12-19T01:31:47.930Z,101250.66
2022-12-19T01:34:15.035Z,101252.45
2022-12-19T01:36:42.015Z,101254.90
2022-12-19T01:39:09.214Z,101257.81
2022-12-19T01:41:36.661Z,101260.36
2022-12-19T01:44:05.622Z,101254.27
2022-12-19T01:46:38.133Z,101253.80
2022-12-19T01:49:12.298Z,101246.34
2022-12-19T01:51:42.931Z,101250.10
2022-12-19T01:54:11.863Z,101252.84
2022-12-19T01:56:41.008Z,101250.20
2022-12-19T01:59:10.115Z,101242.55
2022-12-19T02:01:41.530Z,101242.50
2022-12-19T02:04:23.843Z,101240.73
2022-12-19T02:06:55.963Z,101238.67
2022-12-19T02:09:24.073Z,101234.77
2022-12-19T02:11:51.511Z,101234.79
2022-12-19T02:14:18.683Z,101237.94
2022-12-19T02:17:09.067Z,101240.69
2022-12-19T02:19:55.281Z,101237.70
2022-12-19T02:22:25.031Z,101236.77
2022-12-19T02:25:18.334Z,101236.21
2022-12-19T02:28:11.239Z,101242.97
2022-12-19T02:30:50.848Z,101244.27
2022-12-19T02:33:24.658Z,101242.32
2022-12-19T02:35:53.205Z,101237.64
2022-12-19T02:38:47.017Z,101229.13
2022-12-19T02:41:20.280Z,101230.79
2022-12-19T02:43:49.046Z,101231.45
2022-12-19T02:46:18.265Z,101226.66
2022-12-19T02:48:45.754Z,101221.56
2022-12-19T02:51:13.020Z,101213.38
2022-12-19T02:53:39.994Z,101214.47
2022-12-19T02:56:29.221Z,101215.56
2022-12-19T02:59:30.554Z,101213.95
2022-12-19T03:02:01.261Z,101215.30
2022-12-19T03:04:45.980Z,101218.13
2022-12-19T03:07:35.650Z,101216.80
2022-12-19T03:10:12.204Z,101209.76
2022-12-19T03:12:53.295Z,101217.68
2022-12-19T03:15:20.059Z,101213.12
2022-12-19T03:17:47.035Z,101208.23
2022-12-19T03:20:26.640Z,101208.82
2022-12-19T03:22:53.437Z,101205.66
2022-12-19T03:25:20.560Z,101208.52
2022-12-19T03:27:47.430Z,101207.44
2022-12-19T03:30:14.270Z,101206.31
2022-12-19T03:32:41.960Z,101218.52
2022-12-19T03:35:13.526Z,101222.26
2022-12-19T03:37:40.984Z,101224.64
2022-12-19T03:40:14.783Z,101218.45
2022-12-19T03:43:00.462Z,101213.95
2022-12-19T03:45:42.447Z,101212.40
2022-12-19T03:48:18.009Z,101212.01
2022-12-19T03:50:54.282Z,101217.13
2022-12-19T03:53:26.825Z,101224.08
2022-12-19T03:55:58.036Z,101229.81
2022-12-19T03:58:31.037Z,101232.99
2022-12-19T04:00:57.802Z,101234.91
2022-12-19T04:03:24.938Z,101243.16
2022-12-19T04:05:53.245Z,101245.31
2022-12-19T04:08:20.154Z,101253.87
2022-12-19T04:10:58.672Z,101254.16
2022-12-19T04:13:47.973Z,101262.59
2022-12-19T04:16:19.740Z,101265.83
2022-12-19T04:18:50.832Z,101263.25
2022-12-19T04:21:21.918Z,101273.80
2022-12-19T04:23:52.548Z,101281.63
2022-12-19T04:26:19.495Z,101290.59
2022-12-19T04:28:52.455Z,101285.27
2022-12-19T04:31:19.326Z,101282.97
2022-12-19T04:33:46.390Z,101290.96
2022-12-19T04:36:15.451Z,101295.48
2022-12-19T04:38:42.427Z,101292.26
2022-12-19T04:41:09.449Z,101292.39
2022-12-19T04:43:36.433Z,101296.77
2022-12-19T04:46:03.533Z,101299.30
2022-12-19T04:48:30.472Z,101299.11
2022-12-19T04:50:57.488Z,101301.48
2022-12-19T04:53:24.584Z,101303.02
2022-12-19T04:55:59.980Z,101296.48
2022-12-19T04:58:26.888Z,101304.66
2022-12-19T05:00:53.807Z,101308.98
2022-12-19T05:03:21.283Z,101308.48
2022-12-19T05:05:48.299Z,101306.06
2022-12-19T05:08:15.420Z,101306.71
2022-12-19T05:10:42.571Z,101307.05
2022-12-19T05:13:09.847Z,101316.08
2022-12-19T05:15:36.793Z,101322.10
2022-12-19T05:18:04.714Z,101326.25
2022-12-19T05:20:31.669Z,101329.82
2022-12-19T05:23:01.856Z,101335.63
2022-12-19T05:25:34.632Z,101340.14
2022-12-19T05:28:01.872Z,101342.75
2022-12-19T05:30:28.922Z,101344.60
2022-12-19T05:32:55.967Z,101341.52
2022-12-19T05:35:23.118Z,101333.48
2022-12-19T05:37:50.175Z,101333.84
2022-12-19T05:40:17.096Z,101329.64
2022-12-19T05:42:44.344Z,101328.34
2022-12-19T05:45:11.604Z,101334.59
2022-12-19T05:47:38.529Z,101339.57
2022-12-19T05:50:06.217Z,101342.39
2022-12-19T05:52:33.035Z,101343.06
2022-12-19T05:54:59.979Z,101345.25
2022-12-19T05:57:27.101Z,101336.34
2022-12-19T05:59:54.608Z,101331.23
2022-12-19T06:02:21.661Z,101336.98
2022-12-19T06:04:48.862Z,101338.48
2022-12-19T06:07:20.723Z,101345.60
2022-12-19T06:09:48.611Z,101349.05
2022-12-19T06:12:15.559Z,101351.69
2022-12-19T06:14:42.680Z,101350.94
2022-12-19T06:17:09.870Z,101354.58
2022-12-19T06:19:39.202Z,101356.32
2022-12-19T06:22:06.834Z,101354.52
2022-12-19T06:24:33.748Z,101362.48
2022-12-19T06:27:00.808Z,101368.60
2022-12-19T06:29:27.923Z,101367.29
2022-12-19T06:31:55.207Z,101366.69
2022-12-19T06:34:55.217Z,101357.39
2022-12-19T06:37:09.618Z,101358.88
2022-12-19T06:39:36.841Z,101357.58
2022-12-19T06:42:22.301Z,101364.40
2022-12-19T06:44:54.346Z,101366.32
2022-12-19T06:47:24.826Z,101364.21
2022-12-19T06:49:51.923Z,101357.42
2022-12-19T06:52:18.817Z,101350.35
2022-12-19T06:54:45.849Z,101353.72
2022-12-19T06:57:13.002Z,101355.14
2022-12-19T06:59:39.861Z,101353.73
2022-12-19T07:02:15.263Z,101349.71
2022-12-19T07:04:48.932Z,101349.40
2022-12-19T07:07:15.848Z,101355.96
2022-12-19T07:09:42.976Z,101359.64
2022-12-19T07:12:09.832Z,101363.09
2022-12-19T07:14:37.075Z,101366.33
2022-12-19T07:17:04.323Z,101361.78
2022-12-19T07:19:31.540Z,101366.80
2022-12-19T07:21:59.450Z,101369.87
2022-12-19T07:24:26.485Z,101369.25
2022-12-19T07:26:53.645Z,101370.41
2022-12-19T07:29:20.733Z,101369.27
2022-12-19T07:31:47.602Z,101376.88
2022-12-19T07:34:14.681Z,101383.64
2022-12-19T07:36:41.732Z,101388.30
2022-12-19T07:39:08.880Z,101383.73
2022-12-19T07:41:37.015Z,101384.35
2022-12-19T07:44:05.374Z,101384.83
2022-12-19T07:46:32.244Z,101385.86
2022-12-19T07:48:59.767Z,101383.92
2022-12-19T07:51:27.382Z,101382.89
2022-12-19T09:21:28.645Z,101352.17
2022-12-19T09:24:03.457Z,101350.75
2022-12-19T09:26:34.947Z,101351.17
2022-12-19T09:29:06.816Z,101353.23
2022-12-19T09:31:51.531Z,101353.92
2022-12-19T09:34:37.102Z,101354.84
2022-12-19T09:37:10.449Z,101351.46
2022-12-19T09:39:45.708Z,101351.23
2022-12-19T09:42:14.827Z,101351.05
2022-12-19T09:44:51.644Z,101356.17
2022-12-19T09:47:28.763Z,101359.30
2022-12-19T09:49:55.752Z,101354.83
2022-12-19T09:52:33.440Z,101346.96
2022-12-19T09:55:19.390Z,101341.81
2022-12-19T09:58:00.754Z,101346.64
2022-12-19T10:00:48.920Z,101354.70
2022-12-19T10:03:38.753Z,101354.75
2022-12-19T10:07:19.796Z,101342.17
2022-12-19T10:11:47.647Z,101336.46
2022-12-19T10:12:43.243Z,101330.92
2022-12-19T10:15:19.928Z,101331.88
2022-12-19T10:18:08.674Z,101328.79
2022-12-19T10:20:38.224Z,101323.76
2022-12-19T10:23:26.116Z,101318.86
2022-12-19T10:25:56.458Z,101322.77
2022-12-19T10:28:32.406Z,101322.92
2022-12-19T10:31:22.715Z,101325.14
2022-12-19T10:34:03.803Z,101321.75
2022-12-19T10:37:11.918Z,101326.48
2022-12-19T10:39:35.293Z,101321.58
2022-12-19T10:42:11.027Z,101324.73
2022-12-19T10:44:38.184Z,101328.65
2022-12-19T10:47:07.896Z,101331.73
2022-12-19T10:49:34.910Z,101332.19
2022-12-19T10:52:07.375Z,101326.67
2022-12-19T10:54:39.054Z,101323.38
2022-12-19T10:57:21.758Z,101321.69
2022-12-19T10:59:58.986Z,101320.11
2022-12-19T11:02:35.254Z,101315.70
2022-12-19T11:05:03.331Z,101313.81
2022-12-19T11:07:31.842Z,101307.22
2022-12-19T11:10:55.083Z,101305.81
2022-12-19T11:17:02.949Z,101310.16
2022-12-19T11:21:29.817Z,101308.26
2022-12-19T11:25:35.856Z,101306.98
2022-12-19T11:29:31.803Z,101311.27
2022-12-19T11:29:31.810Z,101303.60
2022-12-19T11:29:34.223Z,101307.61
2022-12-19T11:33:15.268Z,101304.46
2022-12-19T11:35:50.582Z,101313.75
2022-12-19T11:38:40.353Z,101311.91
2022-12-19T11:41:13.500Z,101308.48
2022-12-19T11:43:58.608Z,101313.95
2022-12-19T11:46:33.407Z,101310.63
2022-12-19T11:49:20.661Z,101301.85
2022-12-19T11:52:06.664Z,101301.20
2022-12-19T11:54:57.039Z,101298.16
2022-12-19T11:57:24.095Z,101299.25
2022-12-19T11:59:51.903Z,101292.72
2022-12-19T12:02:25.153Z,101291.95
2022-12-19T12:05:33.066Z,101286.61
2022-12-19T12:08:52.197Z,101292.52
2022-12-19T12:19:41.894Z,101292.62
2022-12-19T12:22:50.833Z,101282.88
2022-12-19T12:27:17.910Z,101280.91
2022-12-19T12:31:19.239Z,101275.22
2022-12-19T12:31:29.276Z,101274.34
2022-12-19T12:31:49.678Z,101262.83
2022-12-19T12:31:52.366Z,101257.41
2022-12-19T12:35:50.036Z,101249.94
2022-12-19T12:42:05.026Z,101246.62
2022-12-19T12:44:45.067Z,101246.13
2022-12-19T12:47:24.081Z,101247.27
2022-12-19T12:49:58.613Z,101243.84
2022-12-19T12:52:58.036Z,101240.96
2022-12-19T12:55:30.927Z,101242.01
2022-12-19T12:57:58.002Z,101235.39
2022-12-19T13:00:34.186Z,101230.02
2022-12-19T13:03:11.914Z,101225.39
2022-12-19T13:05:46.249Z,101221.77
2022-12-19T13:08:44.420Z,101221.84
2022-12-19T13:11:37.791Z,101219.06
2022-12-19T13:14:06.189Z,101222.35
2022-12-19T13:16:42.480Z,101210.45
2022-12-19T13:19:39.283Z,101206.01
2022-12-19T13:22:09.426Z,101209.59
2022-12-19T13:24:46.053Z,101205.34
2022-12-19T13:27:19.373Z,101202.72
2022-12-19T13:29:55.559Z,101196.88
2022-12-19T13:32:40.722Z,101200.40
2022-12-19T13:36:44.301Z,101194.55
2022-12-19T13:39:48.076Z,101193.84
2022-12-19T13:40:56.713Z,101199.52
2022-12-19T13:43:49.605Z,101197.48
2022-12-19T13:46:22.904Z,101197.63
2022-12-19T13:48:51.742Z,101191.30
2022-12-19T13:51:18.452Z,101188.27
2022-12-19T13:53:45.321Z,101190.16
2022-12-19T13:56:13.214Z,101193.16
2022-12-19T13:58:59.401Z,101191.84
2022-12-19T14:01:28.048Z,101187.69
2022-12-19T14:03:57.529Z,101186.15
2022-12-19T14:06:43.479Z,101183.13
2022-12-19T14:11:26.824Z,101181.34
2022-12-19T14:14:00.504Z,101182.26
2022-12-19T14:15:33.749Z,101180.46
2022-12-19T14:18:41.724Z,101176.93
2022-12-19T14:22:01.617Z,101177.92
2022-12-19T14:23:43.721Z,101175.14
2022-12-19T14:28:19.924Z,101176.30
2022-12-19T14:30:28.487Z,101180.54
2022-12-19T14:33:39.115Z,101184.36
2022-12-19T14:36:06.823Z,101176.42
2022-12-19T14:39:20.264Z,101166.58
2022-12-19T14:41:08.113Z,101170.70
2022-12-19T14:44:00.554Z,101163.37
2022-12-19T14:53:34.302Z,101164.95
2022-12-19T14:54:16.487Z,101160.27
2022-12-19T14:54:26.805Z,101161.27
2022-12-19T14:56:04.285Z,101169.14
2022-12-19T14:58:55.653Z,101170.70
2022-12-19T15:01:10.011Z,101164.96
2022-12-19T15:03:42.360Z,101165.98
2022-12-19T15:06:19.897Z,101160.05
2022-12-19T15:11:04.268Z,101162.27
2022-12-19T15:14:49.426Z,101159.06
2022-12-19T15:15:17.647Z,101156.13
2022-12-19T15:17:46.983Z,101153.51
2022-12-19T15:20:14.018Z,101149.31
2022-12-19T15:22:41.413Z,101155.91
2022-12-19T15:25:35.961Z,101149.57
2022-12-19T15:28:00.200Z,101149.05
2022-12-19T15:30:28.457Z,101144.80
2022-12-19T15:32:55.351Z,101150.06
2022-12-19T15:35:22.559Z,101142.87
2022-12-19T15:37:49.459Z,101139.63
2022-12-19T15:40:17.680Z,101145.21
2022-12-19T15:42:46.571Z,101144.05
2022-12-19T15:45:18.562Z,101148.67
2022-12-19T15:47:45.561Z,101148.92
2022-12-19T15:50:17.120Z,101153.58
2022-12-19T15:52:44.207Z,101151.31
2022-12-19T15:55:15.465Z,101150.77
2022-12-19T15:57:44.718Z,101146.91
2022-12-19T16:00:23.125Z,101149.98
2022-12-19T16:05:38.137Z,101142.02
2022-12-19T16:08:12.398Z,101137.39
2022-12-19T16:10:40.109Z,101122.17
2022-12-19T16:13:14.000Z,101112.64
2022-12-19T16:15:40.976Z,101120.40
2022-12-19T16:18:09.735Z,101115.70
2022-12-19T16:20:37.517Z,101116.15
2022-12-19T16:23:04.661Z,101104.23
2022-12-19T16:25:42.444Z,101103.42
2022-12-19T16:28:20.969Z,101101.11
2022-12-19T16:30:49.828Z,101099.85
2022-12-19T16:33:22.163Z,101095.19
2022-12-19T16:36:06.519Z,101083.64
2022-12-19T16:38:35.040Z,101089.05
2022-12-19T16:41:02.048Z,101090.70
2022-12-19T16:43:36.887Z,101085.40
2022-12-19T16:46:05.100Z,101079.25
2022-12-19T16:48:35.120Z,101071.18
2022-12-19T16:51:02.208Z,101060.68
2022-12-19T16:53:29.328Z,101048.52
2022-12-19T16:55:56.241Z,101049.79
2022-12-19T16:58:25.460Z,101049.45
2022-12-19T17:00:54.296Z,101051.98
2022-12-19T17:03:40.138Z,101055.98
2022-12-19T17:06:11.979Z,101054.25
2022-12-19T17:08:39.050Z,101048.29
2022-12-19T17:11:12.446Z,101041.54
2022-12-19T17:13:39.585Z,101033.23
2022-12-19T17:16:06.820Z,101035.45
2022-12-19T17:18:35.627Z,101032.83
2022-12-19T17:21:02.869Z,101026.31
2022-12-19T17:23:31.766Z,101017.70
2022-12-19T17:25:59.815Z,101014.08
2022-12-19T17:28:27.648Z,101022.80
2022-12-19T17:30:56.968Z,101024.67
2022-12-19T17:33:28.166Z,101022.42
2022-12-19T17:35:54.927Z,101027.75
2022-12-19T17:38:22.035Z,101025.17
2022-12-19T17:40:49.286Z,101006.46
2022-12-19T17:43:16.257Z,101013.17
2022-12-19T17:45:44.332Z,101009.14
2022-12-19T17:48:22.921Z,101005.99
2022-12-19T17:50:50.796Z,101005.84
2022-12-19T17:53:17.840Z,101013.88
2022-12-19T17:55:45.013Z,101011.30
2022-12-19T17:58:12.254Z,101014.61
2022-12-19T18:00:39.337Z,101005.02
2022-12-19T18:03:18.433Z,100996.79
2022-12-19T18:05:46.013Z,101001.67
2022-12-19T18:08:31.757Z,100999.32
2022-12-19T18:11:03.005Z,100991.80
2022-12-19T18:13:30.787Z,100987.41
2022-12-19T18:16:02.008Z,100983.47
2022-12-19T18:18:33.698Z,100983.58
2022-12-19T18:21:01.230Z,100984.23
2022-12-19T18:23:29.932Z,100988.57
2022-12-19T18:26:01.435Z,100991.16
2022-12-19T18:28:29.949Z,100987.93
2022-12-19T18:31:02.935Z,100976.66
2022-12-19T18:33:37.603Z,100972.55
2022-12-19T18:36:05.853Z,100965.02
2022-12-19T18:38:32.717Z,100956.64
2022-12-19T18:40:59.722Z,100956.48
2022-12-19T18:43:27.023Z,100953.73
2022-12-19T18:45:54.007Z,100949.48
2022-12-19T18:48:29.288Z,100947.14
2022-12-19T18:50:56.409Z,100946.61
2022-12-19T18:53:35.244Z,100945.28
2022-12-19T18:56:04.242Z,100934.85
2022-12-19T18:58:31.553Z,100935.61
2022-12-19T19:00:59.558Z,100937.30
2022-12-19T19:03:29.232Z,100934.81
2022-12-19T19:05:56.399Z,100922.80
2022-12-19T19:08:25.686Z,100921.70
2022-12-19T19:11:01.271Z,100922.00
2022-12-19T19:13:28.605Z,100915.88
2022-12-19T19:16:00.896Z,100908.92
2022-12-19T19:18:35.956Z,100908.90
2022-12-19T19:21:04.487Z,100907.05
2022-12-19T19:23:40.039Z,100907.08
2022-12-19T19:26:07.018Z,100904.89
2022-12-19T19:28:36.801Z,100902.54
2022-12-19T19:31:04.056Z,100900.98
2022-12-19T19:33:33.891Z,100899.44
2022-12-19T19:36:10.972Z,100895.65
2022-12-19T19:38:40.442Z,100894.96
2022-12-19T19:41:07.430Z,100890.25
2022-12-19T19:43:35.547Z,100893.64
2022-12-19T19:46:02.939Z,100888.48
2022-12-19T19:48:32.550Z,100885.09
2022-12-19T19:50:59.667Z,100880.73
2022-12-19T19:53:26.934Z,100876.46
2022-12-19T19:55:58.962Z,100877.82
2022-12-19T19:58:26.958Z,100870.75
2022-12-19T20:00:53.696Z,100867.83
2022-12-19T20:03:23.325Z,100865.43
2022-12-19T20:05:58.473Z,100867.16
2022-12-19T20:08:25.746Z,100867.20
2022-12-19T20:10:57.542Z,100871.15
2022-12-19T20:13:24.477Z,100872.61
2022-12-19T20:15:51.448Z,100873.52
2022-12-19T20:18:18.584Z,100863.98
2022-12-19T20:20:47.573Z,100858.99
2022-12-19T20:23:14.524Z,100848.18
2022-12-19T20:25:42.690Z,100839.36
2022-12-19T20:28:09.749Z,100833.70
2022-12-19T20:30:37.515Z,100832.99
2022-12-19T20:33:04.661Z,100826.53
2022-12-19T20:35:31.729Z,100824.52
2022-12-19T20:37:58.757Z,100826.61
2022-12-19T20:40:25.792Z,100828.05
2022-12-19T20:42:52.754Z,100824.91
2022-12-19T20:45:21.534Z,100819.92
2022-12-19T20:47:48.547Z,100805.58
2022-12-19T20:50:15.622Z,100801.83
2022-12-19T20:52:42.713Z,100802.92
2022-12-19T20:55:09.731Z,100799.21
2022-12-19T20:57:36.857Z,100795.32
2022-12-19T21:00:05.196Z,100789.17
2022-12-19T21:02:46.595Z,100786.15
2022-12-19T21:05:21.890Z,100773.19
2022-12-19T21:07:48.880Z,100766.55
2022-12-19T21:10:15.956Z,100766.66
2022-12-19T21:12:47.669Z,100765.73
2022-12-19T21:15:15.475Z,100751.84
2022-12-19T21:17:42.457Z,100753.66
2022-12-19T21:20:10.697Z,100738.55
2022-12-19T21:22:37.536Z,100736.86
2022-12-19T21:25:05.516Z,100729.81
2022-12-19T21:27:33.062Z,100726.34
2022-12-19T21:30:00.160Z,100727.39
2022-12-19T21:32:27.263Z,100726.66
2022-12-19T21:34:54.057Z,100722.48
2022-12-19T21:37:21.452Z,100719.61
2022-12-19T21:47:29.423Z,100719.03
2022-12-19T21:49:56.346Z,100706.95
2022-12-19T21:52:23.301Z,100697.92
2022-12-19T21:54:50.233Z,100693.14
2022-12-19T21:57:17.205Z,100694.83
2022-12-19T21:59:44.129Z,100690.82
2022-12-19T22:02:11.186Z,100687.02
2022-12-19T22:04:38.230Z,100672.89
2022-12-19T22:07:05.559Z,100669.33
2022-12-19T22:09:32.468Z,100670.94
2022-12-19T22:11:59.481Z,100667.20
2022-12-19T22:14:26.539Z,100662.02
2022-12-19T22:16:53.430Z,100663.73
2022-12-19T22:19:20.601Z,100656.70
2022-12-19T22:21:47.702Z,100657.66
2022-12-19T22:24:15.423Z,100657.44
2022-12-19T22:26:42.695Z,100653.41
2022-12-19T22:29:11.873Z,100658.14
2022-12-19T22:31:39.106Z,100653.44
2022-12-19T22:34:14.181Z,100646.64
2022-12-19T22:36:41.916Z,100630.38
2022-12-19T22:39:10.794Z,100623.37
2022-12-19T22:41:38.104Z,100614.88
2022-12-19T22:44:05.620Z,100613.46
2022-12-19T22:46:34.216Z,100613.38
2022-12-19T22:49:04.010Z,100618.10
2022-12-19T22:51:31.965Z,100612.29
2022-12-19T22:53:59.663Z,100605.70
2022-12-19T22:56:28.527Z,100591.67
2022-12-19T22:58:56.887Z,100587.19
2022-12-19T23:01:29.282Z,100583.89
2022-12-19T23:03:57.636Z,100577.18
2022-12-19T23:06:25.827Z,100570.64
2022-12-19T23:08:52.727Z,100572.37
2022-12-19T23:11:25.466Z,100580.71
2022-12-19T23:13:52.357Z,100569.23
2022-12-19T23:16:19.442Z,100560.27
2022-12-19T23:18:46.585Z,100567.12
2022-12-19T23:21:18.286Z,100566.00
2022-12-19T23:23:46.749Z,100558.48
2022-12-19T23:26:16.463Z,100550.73
2022-12-19T23:28:51.344Z,100538.81
2022-12-19T23:31:18.348Z,100523.36
2022-12-19T23:33:45.251Z,100513.24
2022-12-19T23:36:12.124Z,100517.16
2022-12-19T23:38:39.076Z,100515.16
2022-12-19T23:41:07.639Z,100513.66
2022-12-19T23:43:35.835Z,100502.71
2022-12-19T23:46:29.665Z,100498.05
2022-12-19T23:48:56.755Z,100489.28
2022-12-19T23:51:25.440Z,100491.52
2022-12-19T23:53:53.332Z,100498.46
2022-12-19T23:56:27.671Z,100503.10
2022-12-19T23:58:54.953Z,100483.96
